Time;durP1;ratioP1;P1;durP2;ratioP2;P2;SDS_P1;SDS_P2;PMS_P1;PMS_P2;Temp;Humidity;BMP_temperature;BMP_pressure;BME280_temperature;BME280_humidity;BME280_pressure;Samples;Min_cycle;Max_cycle;Signal;HPM_P1;HPM_P2
2023/03/23 00:02:28;;;;;;;5.67;2.03;;;;;;;18.05;35.83;96872.09;5033022;28;20943;-70
2023/03/23 00:04:54;;;;;;;3.93;1.87;;;;;;;18.06;36.01;96873.72;5039108;28;20520;-71
2023/03/23 00:07:27;;;;;;;3.20;1.97;;;;;;;17.91;36.19;96870.44;5039458;28;20561;-69
2023/03/23 00:09:53;;;;;;;3.00;1.40;;;;;;;17.89;36.50;96877.78;5037931;28;20237;-69
2023/03/23 00:12:28;;;;;;;1.50;1.20;;;;;;;17.89;36.52;96878.63;5035022;28;20422;-70
2023/03/23 00:14:57;;;;;;;1.63;1.30;;;;;;;17.95;36.57;96880.44;5032525;28;20454;-70
2023/03/23 00:17:23;;;;;;;5.10;1.50;;;;;;;18.01;36.53;96880.66;5041638;28;20461;-70
2023/03/23 00:19:48;;;;;;;3.73;1.20;;;;;;;17.80;36.70;96885.16;5040303;28;20422;-70
2023/03/23 00:22:16;;;;;;;1.93;1.60;;;;;;;17.96;36.70;96874.09;5055300;28;20929;-70
2023/03/23 00:24:42;;;;;;;3.57;1.80;;;;;;;18.00;36.61;96869.22;5038682;28;20227;-70
2023/03/23 00:27:14;;;;;;;1.57;1.33;;;;;;;17.96;36.52;96865.31;5037834;28;20412;-71
2023/03/23 00:29:41;;;;;;;2.20;1.47;;;;;;;17.91;37.02;96862.50;5038506;28;20464;-70
2023/03/23 00:32:12;;;;;;;2.87;1.50;;;;;;;17.87;37.15;96856.81;5033063;28;20426;-69
2023/03/23 00:34:40;;;;;;;1.53;1.43;;;;;;;17.78;37.35;96850.91;5036386;28;20445;-69
2023/03/23 00:37:07;;;;;;;2.83;1.83;;;;;;;17.78;37.38;96848.25;5044489;28;20420;-70
2023/03/23 00:39:36;;;;;;;2.27;1.67;;;;;;;17.63;37.49;96848.50;5048404;28;20429;-70
2023/03/23 00:42:02;;;;;;;2.47;2.00;;;;;;;17.64;37.45;96854.59;5047890;28;20477;-70
2023/03/23 00:44:30;;;;;;;2.10;1.90;;;;;;;17.59;37.47;96857.03;5045900;28;21051;-70
2023/03/23 00:46:56;;;;;;;2.53;1.70;;;;;;;17.46;37.38;96847.28;5051462;28;20425;-69
2023/03/23 00:49:24;;;;;;;3.10;1.80;;;;;;;17.39;37.80;96846.47;5048384;28;20934;-69
2023/03/23 00:51:51;;;;;;;1.97;1.77;;;;;;;17.41;37.71;96839.13;5048174;28;20410;-69
2023/03/23 00:54:16;;;;;;;6.57;1.80;;;;;;;17.48;37.60;96835.44;5048215;28;20937;-70
2023/03/23 00:56:41;;;;;;;2.20;1.50;;;;;;;17.41;37.52;96839.94;5039521;28;20421;-69
2023/03/23 00:59:07;;;;;;;3.77;1.77;;;;;;;17.37;37.60;96835.28;5060126;28;20866;-70
2023/03/23 01:01:33;;;;;;;4.80;1.97;;;;;;;17.41;37.83;96828.53;5051233;28;20252;-71
2023/03/23 01:04:03;;;;;;;2.20;1.90;;;;;;;17.43;37.53;96831.78;5036059;28;20688;-70
2023/03/23 01:06:35;;;;;;;5.00;2.40;;;;;;;17.28;37.85;96834.66;5034800;28;20842;-70
2023/03/23 01:09:02;;;;;;;2.13;1.60;;;;;;;17.25;37.81;96825.28;5046214;28;20422;-70
2023/03/23 01:11:27;;;;;;;1.97;1.73;;;;;;;17.30;37.80;96829.97;5043102;28;21000;-71
2023/03/23 01:13:53;;;;;;;2.50;1.93;;;;;;;17.27;37.93;96833.81;5042763;28;20437;-70
2023/03/23 01:16:18;;;;;;;4.07;1.90;;;;;;;17.35;37.81;96831.00;5034815;28;20183;-70
2023/03/23 01:18:44;;;;;;;2.70;2.00;;;;;;;17.38;37.73;96824.47;5053068;28;20182;-70
2023/03/23 01:21:15;;;;;;;2.47;1.70;;;;;;;17.43;37.71;96826.50;5055625;28;20256;-71
2023/03/23 01:23:41;;;;;;;3.00;2.23;;;;;;;17.49;37.40;96828.34;5051857;28;20203;-70
2023/03/23 01:26:13;;;;;;;2.63;1.70;;;;;;;17.51;37.44;96818.34;5046971;28;20973;-70
2023/03/23 01:28:39;;;;;;;2.27;2.07;;;;;;;17.41;37.42;96808.16;5038452;28;20471;-70
2023/03/23 01:31:11;;;;;;;2.00;1.80;;;;;;;17.28;37.94;96806.31;5041789;28;20437;-71
2023/03/23 01:33:38;;;;;;;2.53;1.77;;;;;;;17.18;38.13;96790.03;5035995;28;20453;-72
2023/03/23 01:36:14;;;;;;;2.67;2.30;;;;;;;17.29;38.11;96788.63;5046633;28;20437;-71
2023/03/23 01:38:42;;;;;;;2.87;2.07;;;;;;;17.31;37.99;96795.34;5040279;28;20425;-70
2023/03/23 01:41:07;;;;;;;3.40;1.97;;;;;;;17.35;37.82;96785.13;5046624;28;20453;-71
2023/03/23 01:43:32;;;;;;;2.33;2.10;;;;;;;17.25;37.90;96782.09;5052156;28;20779;-70
2023/03/23 01:45:58;;;;;;;2.47;1.70;;;;;;;17.30;38.24;96774.38;5058582;28;20271;-69
2023/03/23 01:48:33;;;;;;;2.00;1.80;;;;;;;17.30;38.03;96775.16;5041285;28;20186;-71
2023/03/23 01:51:08;;;;;;;7.67;1.60;;;;;;;17.31;37.95;96776.00;5039501;28;20174;-71
2023/03/23 01:53:42;;;;;;;2.63;1.90;;;;;;;17.27;37.98;96780.06;5048516;28;20432;-70
2023/03/23 01:56:08;;;;;;;2.27;2.07;;;;;;;17.32;37.63;96773.13;5037929;28;20417;-71
2023/03/23 01:58:34;;;;;;;2.10;1.90;;;;;;;17.34;37.89;96771.09;5046762;28;20782;-71
2023/03/23 02:01:04;;;;;;;1.70;1.60;;;;;;;17.39;37.54;96777.63;5038685;28;20286;-71
2023/03/23 02:03:31;;;;;;;2.50;2.00;;;;;;;17.43;37.43;96781.47;5046433;28;20961;-70
2023/03/23 02:05:58;;;;;;;5.27;2.00;;;;;;;17.41;37.31;96775.56;5041059;28;20426;-70
2023/03/23 02:08:24;;;;;;;2.23;1.80;;;;;;;17.34;37.63;96776.38;5055819;28;20418;-69
2023/03/23 02:10:49;;;;;;;3.30;1.90;;;;;;;17.35;37.61;96783.31;5053429;28;20441;-69
2023/03/23 02:13:15;;;;;;;3.30;1.80;;;;;;;17.32;37.55;96777.63;5051815;28;21280;-71
2023/03/23 02:16:01;;;;;;;1.80;1.50;;;;;;;17.35;37.62;96778.03;5055234;28;20204;-70
2023/03/23 02:19:00;;;;;;;2.53;1.63;;;;;;;17.35;37.77;96778.03;5043926;28;20266;-71
2023/03/23 02:21:40;;;;;;;2.77;1.67;;;;;;;17.28;37.71;96779.84;5049059;28;20555;-70
2023/03/23 02:24:30;;;;;;;2.40;1.90;;;;;;;17.26;37.78;96781.91;5042941;28;20460;-70
2023/03/23 02:27:04;;;;;;;2.40;1.83;;;;;;;17.23;38.13;96771.72;5038509;28;20426;-69
2023/03/23 02:29:35;;;;;;;2.17;1.60;;;;;;;17.19;37.93;96773.16;5050014;28;20413;-70
2023/03/23 02:32:29;;;;;;;2.03;1.60;;;;;;;17.18;38.10;96766.22;5047464;28;20508;-70
2023/03/23 02:35:06;;;;;;;4.00;2.03;;;;;;;17.24;38.01;96770.72;5047064;28;20445;-71
2023/03/23 02:38:00;;;;;;;2.53;2.23;;;;;;;17.29;38.04;96759.50;5046708;28;20425;-71
2023/03/23 02:40:31;;;;;;;1.90;1.80;;;;;;;17.29;38.25;96747.06;5042879;28;20495;-71
2023/03/23 02:42:57;;;;;;;3.43;2.30;;;;;;;17.31;38.41;96739.72;5042663;28;20422;-70
2023/03/23 02:45:24;;;;;;;3.43;1.93;;;;;;;17.33;38.53;96735.03;5049543;28;20422;-71
2023/03/23 02:47:52;;;;;;;2.60;2.03;;;;;;;17.34;38.45;96735.84;5046180;28;20425;-71
2023/03/23 02:50:20;;;;;;;2.10;1.90;;;;;;;17.34;38.46;96733.19;5041787;28;20441;-70
2023/03/23 02:52:46;;;;;;;2.13;2.00;;;;;;;17.30;38.50;96737.28;5048927;28;20426;-70
2023/03/23 02:55:13;;;;;;;3.47;2.00;;;;;;;17.32;38.38;96732.59;5048799;28;20967;-70
2023/03/23 02:57:40;;;;;;;2.20;2.00;;;;;;;17.35;38.26;96729.53;5026663;28;20506;-72
2023/03/23 03:00:09;;;;;;;1.73;1.60;;;;;;;17.35;38.26;96730.34;5046849;28;20504;-70
2023/03/23 03:02:37;;;;;;;2.30;2.00;;;;;;;17.32;38.36;96725.47;5050058;28;20966;-71
2023/03/23 03:05:12;;;;;;;4.53;1.90;;;;;;;17.29;38.81;96715.28;5060121;28;20452;-70
2023/03/23 03:07:59;;;;;;;4.60;2.10;;;;;;;17.25;39.17;96714.09;5048005;28;20453;-70
2023/03/23 03:10:37;;;;;;;4.13;1.90;;;;;;;17.24;39.14;96717.75;5035261;28;21191;-70
2023/03/23 03:13:30;;;;;;;3.33;1.80;;;;;;;17.24;39.10;96716.91;5049733;28;20433;-71
2023/03/23 03:16:00;;;;;;;1.83;1.70;;;;;;;17.22;38.93;96717.13;5036999;28;20424;-71
2023/03/23 03:18:34;;;;;;;2.70;1.73;;;;;;;17.24;39.23;96712.44;5043389;28;20434;-70
2023/03/23 03:21:04;;;;;;;1.93;1.80;;;;;;;17.20;39.21;96712.03;5058501;28;20453;-69
2023/03/23 03:23:32;;;;;;;5.30;1.60;;;;;;;17.26;38.97;96714.88;5048622;28;20434;-71
2023/03/23 03:25:58;;;;;;;7.70;4.40;;;;;;;17.26;38.80;96718.38;5048287;28;20414;-69
2023/03/23 03:28:24;;;;;;;4.93;2.03;;;;;;;17.25;38.85;96722.03;5048682;28;20636;-70
2023/03/23 03:30:54;;;;;;;4.60;2.03;;;;;;;17.22;38.92;96719.78;5047453;28;20429;-70
2023/03/23 03:33:20;;;;;;;2.30;1.87;;;;;;;17.31;38.82;96713.25;5057190;28;21005;-70
2023/03/23 03:35:46;;;;;;;2.00;1.80;;;;;;;17.33;38.43;96713.84;5055506;28;20512;-71
2023/03/23 03:38:11;;;;;;;6.70;2.50;;;;;;;17.28;38.61;96721.59;5066391;28;20470;-71
2023/03/23 03:40:38;;;;;;;2.27;2.10;;;;;;;17.37;38.57;96716.09;5053449;28;20206;-71
2023/03/23 03:43:04;;;;;;;2.13;1.93;;;;;;;17.39;38.46;96711.41;5048607;28;20924;-71
2023/03/23 03:45:30;;;;;;;2.70;2.10;;;;;;;17.31;38.53;96723.84;5049345;28;20780;-71
2023/03/23 03:47:55;;;;;;;2.50;1.87;;;;;;;17.17;38.65;96716.94;5046394;28;20457;-70
2023/03/23 03:50:21;;;;;;;3.00;1.93;;;;;;;17.24;38.82;96717.75;5049400;28;20449;-71
2023/03/23 03:52:46;;;;;;;1.70;1.60;;;;;;;17.26;38.41;96710.41;5042787;28;20606;-69
2023/03/23 03:55:12;;;;;;;2.70;1.50;;;;;;;17.35;38.56;96698.56;5037906;28;20323;-70
2023/03/23 03:57:37;;;;;;;2.30;1.67;;;;;;;17.37;38.75;96701.00;5053424;28;20182;-71
2023/03/23 04:00:16;;;;;;;2.10;1.90;;;;;;;17.38;38.91;96707.13;5048853;28;20179;-70
2023/03/23 04:02:43;;;;;;;6.83;2.20;;;;;;;17.28;38.77;96700.41;5041370;28;20183;-70
2023/03/23 04:05:09;;;;;;;2.70;1.87;;;;;;;17.36;38.83;96699.38;5049372;28;20425;-70
2023/03/23 04:07:38;;;;;;;1.60;1.50;;;;;;;17.34;39.34;96702.25;5028260;28;20437;-70
2023/03/23 04:10:07;;;;;;;2.00;1.80;;;;;;;17.28;39.06;96694.31;5035706;28;20918;-71
2023/03/23 04:12:34;;;;;;;2.00;1.80;;;;;;;17.32;38.96;96704.28;5040738;28;20434;-70
2023/03/23 04:14:59;;;;;;;2.73;1.80;;;;;;;17.27;39.20;96706.72;5036938;28;20549;-71
2023/03/23 04:17:25;;;;;;;1.80;1.50;;;;;;;17.30;39.04;96701.03;5042892;28;20417;-71
2023/03/23 04:19:52;;;;;;;2.43;1.57;;;;;;;17.34;38.98;96715.47;5053862;28;20711;-71
2023/03/23 04:22:17;;;;;;;2.43;1.80;;;;;;;17.33;39.22;96713.84;5042310;28;20418;-70
2023/03/23 04:24:43;;;;;;;1.53;1.40;;;;;;;17.37;39.10;96718.75;5044470;28;21183;-70
2023/03/23 04:27:08;;;;;;;1.87;1.73;;;;;;;17.28;39.19;96716.28;5032088;28;20175;-70
2023/03/23 04:29:34;;;;;;;2.30;1.70;;;;;;;17.38;39.13;96713.22;5036495;28;20183;-70
2023/03/23 04:32:01;;;;;;;6.73;1.90;;;;;;;17.39;39.10;96708.75;5041474;28;20215;-71
2023/03/23 04:34:27;;;;;;;6.77;1.80;;;;;;;17.40;39.34;96713.84;5045053;28;20740;-70
2023/03/23 04:36:52;;;;;;;1.80;1.70;;;;;;;17.42;39.14;96713.63;5037469;28;20504;-70
2023/03/23 04:39:18;;;;;;;1.83;1.60;;;;;;;17.40;39.13;96715.66;5048262;28;20209;-70
2023/03/23 04:41:45;;;;;;;3.23;1.60;;;;;;;17.39;39.40;96708.75;5052117;28;20207;-70
2023/03/23 04:44:11;;;;;;;5.60;1.50;;;;;;;17.40;39.39;96699.75;5050438;28;20207;-70
2023/03/23 04:46:36;;;;;;;4.33;1.73;;;;;;;17.43;39.39;96702.00;5039915;28;20931;-70
2023/03/23 04:49:01;;;;;;;4.03;1.50;;;;;;;17.45;39.42;96707.91;5045365;28;20258;-69
2023/03/23 04:51:31;;;;;;;1.90;1.80;;;;;;;17.38;39.33;96705.28;5047609;28;20185;-70
2023/03/23 04:53:56;;;;;;;12.63;5.50;;;;;;;17.42;39.56;96713.63;5046909;28;20745;-70
2023/03/23 04:56:22;;;;;;;13.00;7.40;;;;;;;17.44;39.45;96709.75;5041155;28;20435;-70
2023/03/23 04:58:47;;;;;;;4.80;3.20;;;;;;;17.45;39.20;96714.00;5035656;28;20187;-70
2023/03/23 05:01:17;;;;;;;5.10;3.10;;;;;;;17.48;39.26;96712.78;5046978;28;20297;-70
2023/03/23 05:03:43;;;;;;;2.90;1.70;;;;;;;17.44;39.14;96711.56;5047693;28;20217;-72
2023/03/23 05:06:09;;;;;;;2.77;1.90;;;;;;;17.48;39.03;96712.78;5030379;28;20437;-70
2023/03/23 05:08:38;;;;;;;4.53;1.77;;;;;;;17.43;39.20;96715.25;5037682;28;20480;-70
2023/03/23 05:11:05;;;;;;;2.00;1.63;;;;;;;17.32;39.28;96714.06;5044578;28;20414;-71
2023/03/23 05:13:31;;;;;;;8.80;1.43;;;;;;;17.42;39.42;96703.03;5046315;28;20445;-70
2023/03/23 05:15:56;;;;;;;2.73;1.90;;;;;;;17.43;39.24;96708.13;5040266;28;20434;-69
2023/03/23 05:18:22;;;;;;;1.93;1.60;;;;;;;17.42;39.25;96703.03;5038418;28;20732;-70
2023/03/23 05:20:48;;;;;;;2.10;1.90;;;;;;;17.45;39.39;96702.63;5051667;28;20518;-70
2023/03/23 05:23:14;;;;;;;2.00;1.80;;;;;;;17.51;39.12;96701.78;5043682;28;20206;-70
2023/03/23 05:25:40;;;;;;;2.70;1.63;;;;;;;17.45;39.05;96702.63;5038872;28;20826;-70
2023/03/23 05:28:06;;;;;;;4.00;2.00;;;;;;;17.50;39.11;96694.88;5043305;28;20682;-70
2023/03/23 05:30:32;;;;;;;2.23;1.97;;;;;;;17.53;39.06;96689.13;5043511;28;20413;-70
2023/03/23 05:32:59;;;;;;;3.37;1.83;;;;;;;17.55;38.95;96691.59;5042061;28;20460;-70
2023/03/23 05:35:25;;;;;;;2.00;1.47;;;;;;;17.54;38.91;96698.69;5045126;28;20215;-71
2023/03/23 05:37:53;;;;;;;1.53;1.43;;;;;;;17.53;38.86;96704.22;5044618;28;20420;-71
2023/03/23 05:40:19;;;;;;;2.47;1.33;;;;;;;17.52;39.27;96692.00;5043492;28;20277;-71
2023/03/23 05:42:45;;;;;;;3.27;1.63;;;;;;;17.55;38.72;96692.38;5039696;28;20460;-70
2023/03/23 05:45:11;;;;;;;2.30;1.60;;;;;;;17.60;38.95;96697.06;5034552;28;20568;-69
2023/03/23 05:47:38;;;;;;;4.17;2.20;;;;;;;17.57;38.61;96698.28;5047618;28;20417;-69
2023/03/23 05:50:06;;;;;;;2.10;1.90;;;;;;;17.58;38.59;96697.28;5029997;28;20560;-72
2023/03/23 05:52:32;;;;;;;5.10;1.87;;;;;;;17.64;38.83;96703.56;5043820;28;20947;-70
2023/03/23 05:54:57;;;;;;;3.07;1.60;;;;;;;17.65;38.62;96698.06;5032659;28;20454;-70
2023/03/23 05:57:23;;;;;;;5.63;1.77;;;;;;;17.65;38.55;96708.66;5034579;28;20924;-71
2023/03/23 05:59:48;;;;;;;6.90;1.87;;;;;;;17.70;38.43;96709.88;5037082;28;20187;-71
2023/03/23 06:02:14;;;;;;;4.77;2.33;;;;;;;17.73;38.51;96722.69;5038550;28;20211;-69
2023/03/23 06:04:40;;;;;;;3.87;2.57;;;;;;;17.77;38.63;96715.94;5037714;28;20625;-72
2023/03/23 06:07:07;;;;;;;2.43;1.90;;;;;;;17.77;38.61;96711.47;5034269;28;20564;-73
2023/03/23 06:09:32;;;;;;;9.33;5.97;;;;;;;17.76;38.81;96719.63;5043785;28;21013;-71
2023/03/23 06:11:58;;;;;;;7.67;5.43;;;;;;;17.73;38.95;96728.00;5050523;28;20422;-71
2023/03/23 06:14:23;;;;;;;15.13;11.50;;;;;;;17.81;39.04;96730.41;5050612;28;20792;-71
2023/03/23 06:16:49;;;;;;;14.10;10.63;;;;;;;17.86;39.11;96733.25;5046634;28;20228;-70
2023/03/23 06:19:15;;;;;;;9.80;7.40;;;;;;;17.89;39.44;96735.50;5046608;28;20281;-70
2023/03/23 06:21:41;;;;;;;4.80;4.27;;;;;;;17.89;38.75;96739.97;5050883;28;20199;-70
2023/03/23 06:24:07;;;;;;;3.23;1.87;;;;;;;17.80;38.27;96748.16;5051153;28;20488;-72
2023/03/23 06:26:35;;;;;;;3.70;2.00;;;;;;;17.84;38.43;96748.53;5064483;28;21013;-70
2023/03/23 06:29:00;;;;;;;5.20;2.77;;;;;;;17.89;38.44;96750.56;5049857;28;20271;-71
2023/03/23 06:31:26;;;;;;;7.17;3.40;;;;;;;17.82;38.62;96747.94;5054115;28;20967;-71
2023/03/23 06:33:52;;;;;;;4.37;2.80;;;;;;;17.91;38.50;96754.63;5048492;28;20205;-71
2023/03/23 06:36:18;;;;;;;6.03;4.43;;;;;;;17.94;38.76;96759.50;5049664;28;20457;-70
2023/03/23 06:38:44;;;;;;;5.23;2.50;;;;;;;17.94;38.48;96754.22;5038564;28;20188;-72
2023/03/23 06:41:10;;;;;;;3.93;2.20;;;;;;;17.94;38.48;96753.41;5031578;28;20516;-72
2023/03/23 06:43:39;;;;;;;2.80;2.50;;;;;;;17.95;38.43;96750.53;5044094;28;20532;-70
2023/03/23 06:46:05;;;;;;;7.83;4.27;;;;;;;17.96;38.56;96757.47;5044035;28;20364;-73
2023/03/23 06:48:31;;;;;;;5.70;4.10;;;;;;;18.02;38.47;96755.03;5044800;28;20923;-70
2023/03/23 06:50:57;;;;;;;9.40;2.63;;;;;;;17.94;38.38;96754.22;5041916;28;20791;-71
2023/03/23 06:53:22;;;;;;;2.37;2.17;;;;;;;17.99;38.56;96763.41;5042437;28;20437;-71
2023/03/23 06:55:48;;;;;;;2.53;2.10;;;;;;;18.03;38.58;96769.91;5035415;28;20209;-71
2023/03/23 06:58:13;;;;;;;6.33;2.10;;;;;;;18.12;38.38;96766.00;5043537;28;20251;-71
2023/03/23 07:00:40;;;;;;;4.90;2.43;;;;;;;18.11;38.42;96769.69;5037412;28;20569;-71
2023/03/23 07:03:05;;;;;;;2.30;1.90;;;;;;;18.17;38.34;96781.28;5040770;28;20180;-69
2023/03/23 07:05:32;;;;;;;5.00;2.10;;;;;;;18.13;38.57;96778.25;5045335;28;20921;-71
2023/03/23 07:07:57;;;;;;;3.73;1.80;;;;;;;18.09;38.60;96775.19;5040737;28;20256;-71
2023/03/23 07:10:23;;;;;;;1.83;1.73;;;;;;;18.11;38.54;96775.78;5044556;28;20509;-70
2023/03/23 07:12:49;;;;;;;2.90;2.00;;;;;;;18.22;38.39;96779.63;5053579;28;20715;-72
2023/03/23 07:15:15;;;;;;;2.57;2.00;;;;;;;18.27;38.45;96771.03;5049957;28;20222;-74
2023/03/23 07:17:41;;;;;;;11.87;2.83;;;;;;;18.24;38.45;96774.91;5047334;28;20438;-72
2023/03/23 07:20:07;;;;;;;12.97;2.10;;;;;;;18.16;38.64;96777.00;5054019;28;20190;-72
2023/03/23 07:22:33;;;;;;;5.43;2.17;;;;;;;18.22;38.50;96787.56;5055731;28;20686;-72
2023/03/23 07:24:58;;;;;;;2.90;2.10;;;;;;;18.20;38.47;96794.91;5048615;28;20438;-72
2023/03/23 07:27:24;;;;;;;4.10;2.20;;;;;;;18.07;38.69;96794.97;5055070;28;20735;-71
2023/03/23 07:29:50;;;;;;;3.97;1.90;;;;;;;18.08;38.61;96796.59;5048717;28;20190;-72
2023/03/23 07:32:15;;;;;;;2.10;1.73;;;;;;;18.13;38.77;96810.06;5049123;28;20216;-70
2023/03/23 07:34:41;;;;;;;2.70;2.40;;;;;;;18.07;38.88;96816.19;5055182;28;20858;-70
2023/03/23 07:37:07;;;;;;;5.87;1.90;;;;;;;18.04;38.91;96821.91;5059828;28;20760;-72
2023/03/23 07:39:33;;;;;;;7.33;1.50;;;;;;;18.14;38.88;96818.81;5056128;28;20223;-71
2023/03/23 07:41:58;;;;;;;3.70;1.90;;;;;;;18.18;38.91;96822.69;5047069;28;20462;-71
2023/03/23 07:44:23;;;;;;;2.63;2.00;;;;;;;18.24;38.84;96819.19;5053372;28;20714;-71
2023/03/23 07:46:49;;;;;;;3.57;1.70;;;;;;;18.26;38.93;96814.47;5043916;28;20271;-72
2023/03/23 07:49:15;;;;;;;13.90;2.00;;;;;;;18.30;39.09;96822.81;5049022;28;20183;-71
2023/03/23 07:51:40;;;;;;;1.87;1.70;;;;;;;18.37;39.03;96810.38;5049689;28;20790;-71
2023/03/23 07:54:07;;;;;;;1.77;1.63;;;;;;;18.41;39.01;96817.69;5048577;28;20214;-71
2023/03/23 07:56:35;;;;;;;6.10;2.00;;;;;;;18.47;38.98;96816.03;5049949;28;20214;-71
2023/03/23 07:59:02;;;;;;;2.37;2.17;;;;;;;18.56;39.19;96825.34;5049619;28;20417;-71
2023/03/23 08:01:28;;;;;;;9.03;2.50;;;;;;;18.64;39.12;96818.19;5054428;28;20489;-72
2023/03/23 08:03:56;;;;;;;2.60;2.10;;;;;;;18.51;39.14;96827.84;5050139;28;20846;-72
2023/03/23 08:06:23;;;;;;;3.10;2.03;;;;;;;18.64;39.07;96824.28;5047955;28;20422;-71
2023/03/23 08:08:49;;;;;;;3.73;2.07;;;;;;;18.75;39.10;96832.59;5038103;28;20462;-74
2023/03/23 08:11:15;;;;;;;2.80;1.90;;;;;;;18.76;39.20;96836.88;5049023;28;20460;-71
2023/03/23 08:13:41;;;;;;;4.33;2.00;;;;;;;18.79;39.22;96844.41;5047242;28;20453;-72
2023/03/23 08:16:09;;;;;;;2.00;1.80;;;;;;;18.70;39.85;96847.34;5046198;28;20856;-72
2023/03/23 08:18:36;;;;;;;3.57;2.10;;;;;;;18.72;39.73;96841.81;5038248;28;20418;-71
2023/03/23 08:21:04;;;;;;;2.60;2.27;;;;;;;18.77;39.91;96836.69;5045186;28;20463;-71
2023/03/23 08:23:30;;;;;;;3.57;2.33;;;;;;;18.86;39.95;96840.69;5042711;28;20525;-71
2023/03/23 08:25:55;;;;;;;3.90;2.50;;;;;;;18.84;39.81;96840.09;5053859;28;20417;-71
2023/03/23 08:28:21;;;;;;;4.17;2.13;;;;;;;18.99;39.88;96839.00;5047578;28;20433;-71
2023/03/23 08:30:46;;;;;;;3.53;2.27;;;;;;;18.87;40.16;96847.63;5043238;28;20195;-71
2023/03/23 08:33:14;;;;;;;3.40;2.00;;;;;;;18.50;40.99;96862.53;5043097;28;20182;-72
2023/03/23 08:35:39;;;;;;;2.33;2.13;;;;;;;18.79;40.64;96865.66;5041851;28;20179;-71
2023/03/23 08:38:05;;;;;;;2.00;1.70;;;;;;;18.92;40.54;96852.31;5045400;28;20437;-72
2023/03/23 08:40:31;;;;;;;6.00;1.90;;;;;;;18.95;40.92;96854.56;5052122;28;20242;-71
2023/03/23 08:42:58;;;;;;;2.57;1.83;;;;;;;18.93;41.16;96861.06;5053729;28;20253;-71
2023/03/23 08:45:24;;;;;;;3.60;2.00;;;;;;;18.98;41.39;96858.63;5051505;28;20548;-72
2023/03/23 08:47:53;;;;;;;4.20;2.23;;;;;;;18.99;41.21;96855.75;5049202;28;20426;-72
2023/03/23 08:50:22;;;;;;;6.03;2.23;;;;;;;18.85;41.52;96860.31;5044866;28;20428;-71
2023/03/23 08:52:49;;;;;;;7.10;1.97;;;;;;;18.96;41.65;96860.69;5035451;28;20434;-71
2023/03/23 08:55:15;;;;;;;2.33;1.80;;;;;;;18.98;41.48;96872.69;5045939;28;20449;-71
2023/03/23 08:57:42;;;;;;;2.70;2.00;;;;;;;18.83;41.56;96872.97;5047833;28;20498;-72
2023/03/23 09:00:17;;;;;;;2.30;2.10;;;;;;;18.93;41.65;96869.03;5047947;28;20911;-71
2023/03/23 09:02:49;;;;;;;3.33;2.10;;;;;;;18.95;41.64;96875.81;5043514;28;20441;-70
2023/03/23 09:05:19;;;;;;;2.03;1.60;;;;;;;18.99;41.64;96881.50;5058924;28;20447;-71
2023/03/23 09:07:48;;;;;;;3.10;2.03;;;;;;;19.07;41.46;96878.56;5038440;28;20433;-70
2023/03/23 09:10:14;;;;;;;5.40;1.80;;;;;;;19.13;41.33;96876.91;5044817;28;20480;-70
2023/03/23 09:12:41;;;;;;;2.40;2.20;;;;;;;19.12;41.34;96870.78;5040805;28;20425;-71
2023/03/23 09:15:08;;;;;;;2.57;1.80;;;;;;;19.23;41.30;96887.84;5040511;28;20453;-70
2023/03/23 09:17:36;;;;;;;2.30;1.80;;;;;;;19.18;41.24;96885.84;5048781;28;20519;-71
2023/03/23 09:20:03;;;;;;;3.03;2.13;;;;;;;19.33;41.17;96893.53;5051275;28;21002;-71
2023/03/23 09:22:29;;;;;;;4.20;2.13;;;;;;;19.39;41.03;96896.34;5047504;28;20909;-71
2023/03/23 09:24:55;;;;;;;2.80;1.90;;;;;;;19.37;40.94;96888.59;5047568;28;20445;-72
2023/03/23 09:27:20;;;;;;;2.93;1.90;;;;;;;19.39;40.88;96901.66;5044671;28;20265;-73
2023/03/23 09:29:48;;;;;;;5.27;2.27;;;;;;;19.27;41.21;96897.03;5045840;28;20269;-71
2023/03/23 09:32:14;;;;;;;2.20;2.00;;;;;;;19.28;40.86;96905.81;5051495;28;20270;-71
2023/03/23 09:34:41;;;;;;;7.27;1.80;;;;;;;19.41;40.42;96903.03;5048649;28;20442;-71
2023/03/23 09:37:06;;;;;;;3.13;1.90;;;;;;;19.39;40.67;96902.47;5050148;28;20433;-71
2023/03/23 09:39:32;;;;;;;2.13;1.53;;;;;;;19.20;41.21;96909.56;5042076;28;20433;-71
2023/03/23 09:42:07;;;;;;;2.13;1.83;;;;;;;19.19;40.96;96906.06;5051569;28;20207;-72
2023/03/23 09:45:00;;;;;;;2.77;2.10;;;;;;;19.19;41.21;96916.69;5050987;28;20758;-72
2023/03/23 09:47:33;;;;;;;2.27;1.53;;;;;;;18.97;41.74;96923.38;5053651;28;20978;-71
2023/03/23 09:50:18;;;;;;;3.83;1.70;;;;;;;19.12;41.59;96912.44;5056899;28;20793;-71
2023/03/23 09:52:54;;;;;;;2.53;1.70;;;;;;;18.92;41.83;96912.53;5043542;28;20849;-72
2023/03/23 09:55:20;;;;;;;2.90;1.80;;;;;;;19.03;41.82;96915.38;5035676;28;20465;-72
2023/03/23 09:58:00;;;;;;;1.90;1.70;;;;;;;18.76;42.43;96914.69;5043655;28;20467;-71
2023/03/23 10:00:47;;;;;;;2.83;1.93;;;;;;;18.93;42.05;96920.31;5033348;28;20461;-75
2023/03/23 10:03:19;;;;;;;2.90;1.97;;;;;;;19.14;42.04;96916.53;5050366;28;20425;-72
2023/03/23 10:05:47;;;;;;;3.67;2.00;;;;;;;19.00;42.36;96928.25;5045033;28;20840;-71
2023/03/23 10:08:24;;;;;;;2.90;1.80;;;;;;;19.34;41.64;96913.72;5046476;28;21010;-71
2023/03/23 10:11:01;;;;;;;4.40;2.60;;;;;;;19.71;40.93;96921.00;5040052;28;20496;-71
2023/03/23 10:13:39;;;;;;;6.10;2.27;;;;;;;19.89;40.43;96922.13;5059274;28;20418;-72
2023/03/23 10:16:10;;;;;;;2.03;1.80;;;;;;;20.21;40.15;96914.84;5046885;28;20940;-72
2023/03/23 10:18:47;;;;;;;7.70;1.87;;;;;;;20.29;39.36;96918.25;5021665;28;20914;-71
2023/03/23 10:21:20;;;;;;;2.47;1.80;;;;;;;20.47;39.36;96917.44;5050206;28;20861;-72
2023/03/23 10:24:03;;;;;;;4.50;1.60;;;;;;;20.64;39.14;96921.13;5040159;28;20444;-71
2023/03/23 10:26:44;;;;;;;5.00;2.33;;;;;;;20.63;39.49;96931.97;5060320;28;20503;-71
2023/03/23 10:29:15;;;;;;;3.87;2.00;;;;;;;20.50;39.49;96922.31;5039661;28;21035;-72
2023/03/23 10:31:46;;;;;;;5.83;2.27;;;;;;;20.60;39.33;96922.59;5043889;28;20557;-71
2023/03/23 10:34:27;;;;;;;3.20;2.00;;;;;;;20.66;39.56;96932.38;5049977;28;20449;-72
2023/03/23 10:37:12;;;;;;;6.40;2.43;;;;;;;20.64;39.76;96921.13;5044696;28;20426;-71
2023/03/23 10:39:48;;;;;;;8.33;1.97;;;;;;;20.63;39.48;96930.13;5051674;28;20421;-71
2023/03/23 10:42:22;;;;;;;2.10;1.80;;;;;;;20.66;39.44;96928.88;5044011;28;20453;-73
2023/03/23 10:44:48;;;;;;;1.90;1.80;;;;;;;20.72;39.32;96938.63;5038440;28;20495;-72
2023/03/23 10:47:15;;;;;;;4.27;1.80;;;;;;;20.69;39.49;96937.22;5047984;28;20500;-70
2023/03/23 10:49:46;;;;;;;2.43;1.90;;;;;;;20.77;39.31;96938.78;5033441;28;20198;-72
2023/03/23 10:52:34;;;;;;;1.57;1.47;;;;;;;20.89;38.90;96935.38;5051158;28;20413;-71
2023/03/23 10:55:20;;;;;;;2.33;2.13;;;;;;;21.11;38.69;96930.38;5045601;28;20445;-71
2023/03/23 10:58:04;;;;;;;2.73;2.17;;;;;;;21.31;38.63;96925.53;5050274;28;20483;-72
2023/03/23 11:00:31;;;;;;;3.60;1.97;;;;;;;21.29;38.49;96929.50;5052957;28;20457;-70
2023/03/23 11:03:06;;;;;;;3.03;1.83;;;;;;;21.48;38.26;96928.34;5050551;28;20479;-72
2023/03/23 11:05:43;;;;;;;3.07;1.93;;;;;;;21.49;38.01;96930.00;5050156;28;20456;-71
2023/03/23 11:08:18;;;;;;;2.50;2.00;;;;;;;21.53;37.62;96922.38;5041474;28;20472;-72
2023/03/23 11:10:55;;;;;;;2.80;2.20;;;;;;;21.54;38.09;96920.50;5041701;28;20422;-72
2023/03/23 11:13:29;;;;;;;2.07;1.87;;;;;;;21.38;38.26;96920.13;5051272;28;20953;-70
2023/03/23 11:15:54;;;;;;;6.33;1.73;;;;;;;21.31;38.05;96927.41;5051227;28;20513;-72
2023/03/23 11:18:23;;;;;;;3.50;2.07;;;;;;;21.12;38.71;96918.66;5047458;28;20433;-70
2023/03/23 11:20:53;;;;;;;2.43;1.97;;;;;;;20.64;39.59;96926.44;5057575;28;20210;-72
2023/03/23 11:23:27;;;;;;;2.60;1.93;;;;;;;20.30;40.90;96918.00;5056548;28;20441;-71
2023/03/23 11:25:58;;;;;;;3.47;2.10;;;;;;;20.45;39.95;96920.31;5060359;28;20426;-71
2023/03/23 11:28:37;;;;;;;3.40;2.20;;;;;;;20.56;40.55;96926.72;5049870;28;20448;-71
2023/03/23 11:31:05;;;;;;;4.43;2.00;;;;;;;20.57;40.90;96928.34;5052848;28;20429;-71
2023/03/23 11:33:52;;;;;;;3.80;2.20;;;;;;;20.41;41.89;96919.94;5020558;28;20420;-70
2023/03/23 11:36:18;;;;;;;4.40;2.20;;;;;;;20.51;40.74;96906.09;5043757;28;20183;-72
2023/03/23 11:38:44;;;;;;;2.73;1.87;;;;;;;20.66;40.72;96891.59;5049222;28;20418;-71
2023/03/23 11:41:18;;;;;;;2.30;1.90;;;;;;;20.65;40.27;96903.28;5055362;28;20202;-71
2023/03/23 11:43:45;;;;;;;9.83;1.80;;;;;;;20.92;39.59;96903.75;5049259;28;20436;-73